createdAt,value
2022-08-26T00:00:01.677Z,26.65
2022-08-26T00:02:32.438Z,26.58
2022-08-26T00:05:03.552Z,26.55
2022-08-26T00:07:34.176Z,26.50
2022-08-26T00:10:09.215Z,26.54
2022-08-26T00:12:40.544Z,26.53
2022-08-26T00:15:15.477Z,26.63
2022-08-26T00:17:46.386Z,26.56
2022-08-26T00:20:33.503Z,26.61
2022-08-26T00:23:05.360Z,26.62
2022-08-26T00:25:39.115Z,26.58
2022-08-26T00:28:13.322Z,26.56
2022-08-26T00:30:44.060Z,26.61
2022-08-26T00:33:16.723Z,26.60
2022-08-26T00:35:49.269Z,26.54
2022-08-26T00:38:22.853Z,26.58
2022-08-26T00:40:59.408Z,26.47
2022-08-26T00:43:32.759Z,26.43
2022-08-26T00:46:19.386Z,26.49
2022-08-26T00:48:53.166Z,26.45
2022-08-26T00:51:29.817Z,26.33
2022-08-26T00:54:04.881Z,26.31
2022-08-26T00:56:44.413Z,26.17
2022-08-26T00:59:19.662Z,26.22
2022-08-26T01:01:49.798Z,26.20
2022-08-26T01:04:23.764Z,26.13
2022-08-26T01:06:57.683Z,26.09
2022-08-26T01:09:28.229Z,26.04
2022-08-26T01:12:04.784Z,25.97
2022-08-26T01:14:40.223Z,25.96
2022-08-26T01:17:11.885Z,25.93
2022-08-26T01:19:47.224Z,25.92
2022-08-26T01:22:20.439Z,25.93
2022-08-26T01:24:53.986Z,25.93
2022-08-26T01:27:24.836Z,25.90
2022-08-26T01:29:55.190Z,25.89
2022-08-26T01:32:26.229Z,25.82
2022-08-26T01:34:57.283Z,25.82
2022-08-26T01:37:35.293Z,25.79
2022-08-26T01:40:16.928Z,25.77
2022-08-26T01:42:49.186Z,25.86
2022-08-26T01:45:22.471Z,25.83
2022-08-26T01:47:57.147Z,25.77
2022-08-26T01:50:30.734Z,25.78
2022-08-26T01:53:05.918Z,25.77
2022-08-26T01:55:41.693Z,25.73
2022-08-26T01:58:17.911Z,25.78
2022-08-26T02:00:49.311Z,25.74
2022-08-26T02:03:22.904Z,25.70
2022-08-26T02:05:56.199Z,25.73
2022-08-26T02:08:29.987Z,25.62
2022-08-26T02:11:03.895Z,25.58
2022-08-26T02:13:35.916Z,25.58
2022-08-26T02:16:08.414Z,25.47
2022-08-26T02:18:41.363Z,25.42
2022-08-26T02:21:14.549Z,25.41
2022-08-26T02:23:44.786Z,25.35
2022-08-26T02:26:21.123Z,25.35
2022-08-26T02:28:56.053Z,25.28
2022-08-26T02:31:27.254Z,25.31
2022-08-26T02:33:57.250Z,25.30
2022-08-26T02:36:28.958Z,25.27
2022-08-26T02:38:59.290Z,25.22
2022-08-26T02:41:32.040Z,25.24
2022-08-26T02:44:02.776Z,25.28
2022-08-26T02:46:33.042Z,25.21
2022-08-26T02:49:03.544Z,25.17
2022-08-26T02:51:33.977Z,25.21
2022-08-26T02:54:03.883Z,25.15
2022-08-26T02:56:38.082Z,25.16
2022-08-26T02:59:08.509Z,25.21
2022-08-26T03:01:39.188Z,25.15
2022-08-26T03:04:13.215Z,25.15
2022-08-26T03:06:47.105Z,25.18
2022-08-26T03:09:23.364Z,25.19
2022-08-26T03:11:56.170Z,25.23
2022-08-26T03:14:26.526Z,25.22
2022-08-26T03:16:57.202Z,25.23
2022-08-26T03:19:29.310Z,25.21
2022-08-26T03:22:02.223Z,25.19
2022-08-26T03:24:32.595Z,25.26
2022-08-26T03:27:07.379Z,25.28
2022-08-26T03:29:50.508Z,25.32
2022-08-26T03:32:20.762Z,25.27
2022-08-26T03:34:50.867Z,25.18
2022-08-26T03:37:21.701Z,25.10
2022-08-26T03:39:52.103Z,25.07
2022-08-26T03:42:24.597Z,25.02
2022-08-26T03:44:54.699Z,25.04
2022-08-26T03:47:24.855Z,24.96
2022-08-26T03:49:54.978Z,24.86
2022-08-26T03:52:25.181Z,24.81
2022-08-26T03:54:55.426Z,24.82
2022-08-26T03:57:28.515Z,24.81
2022-08-26T03:59:58.292Z,24.85
2022-08-26T04:02:28.857Z,24.79
2022-08-26T04:04:58.675Z,24.80
2022-08-26T04:07:28.565Z,24.82
2022-08-26T04:10:02.351Z,24.76
2022-08-26T04:12:34.880Z,24.78
2022-08-26T04:15:06.096Z,24.76
2022-08-26T04:17:36.368Z,24.70
2022-08-26T04:20:08.494Z,24.63
2022-08-26T04:22:38.961Z,24.64
2022-08-26T04:25:12.017Z,24.58
2022-08-26T04:27:44.423Z,24.59
2022-08-26T04:30:15.859Z,24.58
2022-08-26T04:32:47.067Z,24.70
2022-08-26T04:35:17.805Z,24.68
2022-08-26T04:37:48.963Z,24.71
2022-08-26T04:40:19.254Z,24.80
2022-08-26T04:42:51.753Z,24.83
2022-08-26T04:45:22.861Z,24.82
2022-08-26T04:47:56.478Z,24.91
2022-08-26T04:50:28.491Z,24.87
2022-08-26T04:52:59.222Z,24.84
2022-08-26T04:55:39.728Z,24.84
2022-08-26T04:58:12.511Z,24.90
2022-08-26T05:00:43.224Z,24.83
2022-08-26T05:03:13.184Z,24.78
2022-08-26T05:05:44.127Z,24.80
2022-08-26T05:08:15.687Z,24.82
2022-08-26T05:10:48.321Z,24.83
2022-08-26T05:13:23.145Z,24.79
2022-08-26T05:15:54.361Z,24.81
2022-08-26T05:18:30.037Z,24.74
2022-08-26T05:21:00.151Z,24.74
2022-08-26T05:23:32.048Z,24.70
2022-08-26T05:26:05.052Z,24.65
2022-08-26T05:28:38.200Z,24.83
2022-08-26T05:31:15.469Z,24.90
2022-08-26T05:33:48.411Z,24.86
2022-08-26T05:36:20.590Z,24.95
2022-08-26T05:38:53.002Z,24.89
2022-08-26T05:41:27.651Z,24.85
2022-08-26T05:44:10.357Z,24.87
2022-08-26T05:46:42.592Z,24.93
2022-08-26T05:49:16.136Z,24.98
2022-08-26T05:51:47.764Z,25.06
2022-08-26T05:54:21.894Z,25.08
2022-08-26T05:56:53.453Z,25.02
2022-08-26T05:59:27.045Z,24.97
2022-08-26T06:01:57.371Z,24.92
2022-08-26T06:04:29.205Z,24.99
2022-08-26T06:07:01.012Z,25.11
2022-08-26T06:09:31.787Z,25.10
2022-08-26T06:12:02.836Z,25.10
2022-08-26T06:14:36.118Z,25.07
2022-08-26T06:17:07.074Z,25.09
2022-08-26T06:19:41.456Z,25.16
2022-08-26T06:25:28.736Z,25.13
2022-08-26T06:27:59.147Z,25.13
2022-08-26T06:30:29.625Z,25.19
2022-08-26T06:33:01.760Z,25.14
2022-08-26T06:35:32.019Z,25.24
2022-08-26T06:38:03.095Z,25.24
2022-08-26T06:40:36.588Z,25.35
2022-08-26T06:43:06.751Z,25.33
2022-08-26T06:45:38.428Z,25.27
2022-08-26T06:48:08.468Z,25.29
2022-08-26T06:50:39.929Z,25.32
2022-08-26T06:53:10.720Z,25.42
2022-08-26T06:55:47.253Z,25.48
2022-08-26T06:58:21.934Z,25.50
2022-08-26T07:00:52.054Z,25.55
2022-08-26T07:03:22.363Z,25.59
2022-08-26T07:05:52.651Z,25.67
2022-08-26T07:08:25.047Z,25.72
2022-08-26T07:10:58.110Z,25.76
2022-08-26T07:13:30.751Z,25.84
2022-08-26T07:16:03.030Z,25.90
2022-08-26T07:18:34.110Z,25.92
2022-08-26T07:21:05.097Z,25.95
2022-08-26T07:23:35.608Z,26.01
2022-08-26T07:26:12.125Z,26.09
2022-08-26T07:28:42.013Z,26.13
2022-08-26T07:31:13.852Z,26.19
2022-08-26T07:33:45.183Z,26.26
2022-08-26T07:36:18.819Z,26.29
2022-08-26T07:38:49.209Z,26.32
2022-08-26T07:44:00.320Z,26.47
2022-08-26T07:46:30.851Z,26.57
2022-08-26T07:49:01.460Z,26.65
2022-08-26T07:51:31.836Z,26.67
2022-08-26T07:54:01.697Z,26.76
2022-08-26T07:56:36.402Z,26.82
2022-08-26T07:59:13.616Z,26.91
2022-08-26T08:01:44.775Z,26.97
2022-08-26T08:04:17.272Z,27.04
2022-08-26T08:06:48.236Z,27.11
2022-08-26T08:09:18.470Z,27.18
2022-08-26T08:11:52.623Z,27.37
2022-08-26T08:14:23.116Z,27.37
2022-08-26T08:16:54.983Z,27.47
2022-08-26T08:19:29.915Z,27.57
2022-08-26T08:22:18.029Z,27.62
2022-08-26T08:24:50.162Z,27.71
2022-08-26T08:27:25.772Z,27.85
2022-08-26T08:29:57.286Z,28.03
2022-08-26T08:32:29.591Z,28.01
2022-08-26T08:35:00.414Z,28.15
2022-08-26T08:37:30.492Z,28.23
2022-08-26T08:40:04.164Z,28.33
2022-08-26T08:42:44.352Z,28.42
2022-08-26T08:45:18.478Z,28.49
2022-08-26T08:47:54.027Z,28.61
2022-08-26T08:50:29.919Z,28.67
2022-08-26T08:53:10.759Z,28.73
2022-08-26T08:56:00.987Z,28.82
2022-08-26T08:58:49.851Z,28.93
2022-08-26T09:01:30.513Z,29.02
2022-08-26T09:04:27.248Z,29.11
2022-08-26T09:07:01.393Z,29.20
2022-08-26T09:09:38.954Z,29.27
2022-08-26T09:12:15.757Z,29.36
2022-08-26T09:14:49.759Z,29.44
2022-08-26T09:17:32.867Z,29.53
2022-08-26T09:20:13.212Z,29.67
2022-08-26T09:22:44.387Z,29.73
2022-08-26T09:25:16.850Z,29.81
2022-08-26T09:27:51.508Z,29.84
2022-08-26T09:30:28.558Z,29.94
2022-08-26T09:33:03.853Z,30.03
2022-08-26T09:35:42.966Z,30.19
2022-08-26T09:38:26.709Z,30.26
2022-08-26T09:41:02.294Z,30.45
2022-08-26T09:43:35.529Z,30.47
2022-08-26T09:46:18.488Z,30.57
2022-08-26T09:48:48.621Z,30.54
2022-08-26T09:51:34.433Z,30.59
2022-08-26T09:54:08.186Z,30.73
2022-08-26T09:56:40.230Z,30.83
2022-08-26T09:59:13.645Z,30.94
2022-08-26T10:01:47.224Z,31.10
2022-08-26T10:04:24.921Z,31.16
2022-08-26T10:07:02.172Z,31.26
2022-08-26T10:09:35.715Z,31.49
2022-08-26T10:12:09.483Z,31.65
2022-08-26T10:14:47.203Z,31.73
2022-08-26T10:17:30.904Z,31.84
2022-08-26T10:20:06.308Z,31.96
2022-08-26T10:22:57.966Z,32.01
2022-08-26T10:25:31.876Z,32.13
2022-08-26T10:28:12.276Z,32.16
2022-08-26T10:30:47.498Z,32.25
2022-08-26T10:33:20.083Z,32.38
2022-08-26T10:35:55.608Z,32.51
2022-08-26T10:38:30.522Z,32.73
2022-08-26T10:41:09.696Z,32.81
2022-08-26T10:43:45.281Z,32.89
2022-08-26T10:46:19.308Z,33.14
2022-08-26T10:48:59.908Z,33.50
2022-08-26T10:51:38.564Z,33.65
2022-08-26T10:54:14.056Z,33.79
2022-08-26T10:56:51.339Z,33.74
2022-08-26T10:59:31.296Z,33.71
2022-08-26T11:02:10.205Z,33.63
2022-08-26T11:04:49.206Z,33.60
2022-08-26T11:07:38.016Z,33.57
2022-08-26T11:10:12.330Z,33.58
2022-08-26T11:12:54.310Z,33.51
2022-08-26T11:16:10.172Z,33.29
2022-08-26T11:18:46.332Z,33.27
2022-08-26T11:21:49.547Z,33.22
2022-08-26T11:24:46.603Z,32.96
2022-08-26T11:27:46.947Z,32.95
2022-08-26T11:30:57.003Z,33.02
2022-08-26T11:34:02.572Z,32.72
2022-08-26T11:36:43.586Z,32.30
2022-08-26T11:39:21.898Z,31.68
2022-08-26T11:42:00.045Z,31.26
2022-08-26T11:44:40.612Z,30.76
2022-08-26T11:47:28.830Z,30.30
2022-08-26T11:50:11.129Z,30.06
2022-08-26T11:52:41.575Z,30.17
2022-08-26T11:55:14.415Z,30.09
2022-08-26T11:57:50.342Z,29.73
2022-08-26T12:00:22.981Z,29.24
2022-08-26T12:02:55.687Z,29.02
2022-08-26T12:05:31.129Z,28.95
2022-08-26T12:08:11.619Z,29.05
2022-08-26T12:10:41.974Z,28.82
2022-08-26T12:13:23.987Z,28.71
2022-08-26T12:15:59.018Z,28.54
2022-08-26T12:18:37.400Z,28.45
2022-08-26T12:21:16.019Z,28.48
2022-08-26T12:23:49.882Z,28.47
2022-08-26T12:26:26.790Z,28.34
2022-08-26T12:29:10.002Z,27.74
2022-08-26T12:31:47.912Z,26.99
2022-08-26T12:34:19.781Z,26.70
2022-08-26T12:36:51.760Z,26.57
2022-08-26T12:39:29.699Z,26.16
2022-08-26T12:42:01.277Z,25.21
2022-08-26T12:44:53.816Z,24.80
2022-08-26T12:47:41.784Z,24.54
2022-08-26T12:50:21.642Z,24.14
2022-08-26T12:52:59.023Z,24.11
2022-08-26T12:55:38.438Z,24.17
2022-08-26T12:58:33.659Z,23.98
2022-08-26T13:01:25.070Z,23.99
2022-08-26T13:03:55.023Z,24.28
2022-08-26T13:06:31.692Z,24.51
2022-08-26T13:09:05.136Z,24.43
2022-08-26T13:11:37.872Z,23.78
2022-08-26T13:14:11.202Z,23.32
2022-08-26T13:16:44.250Z,23.33
2022-08-26T13:19:16.287Z,23.33
2022-08-26T13:21:49.666Z,23.44
2022-08-26T13:24:24.392Z,23.49
2022-08-26T13:26:54.891Z,23.56
2022-08-26T13:29:25.461Z,23.48
2022-08-26T13:31:58.864Z,23.48
2022-08-26T13:34:29.731Z,23.52
2022-08-26T13:37:00.549Z,23.58
2022-08-26T13:39:31.074Z,23.66
2022-08-26T13:42:01.833Z,23.79
2022-08-26T13:44:31.824Z,23.94
2022-08-26T13:47:04.732Z,24.04
2022-08-26T13:49:34.681Z,23.98
2022-08-26T13:52:05.130Z,24.04
2022-08-26T13:54:35.136Z,24.11
2022-08-26T13:57:06.064Z,24.14
2022-08-26T13:59:35.973Z,24.05
2022-08-26T14:02:10.104Z,23.95
2022-08-26T14:04:40.123Z,23.77
2022-08-26T14:07:10.368Z,23.34
2022-08-26T14:09:40.659Z,22.56
2022-08-26T14:12:11.170Z,22.04
2022-08-26T14:14:41.394Z,21.71
2022-08-26T14:17:16.811Z,21.60
2022-08-26T14:19:49.450Z,21.66
2022-08-26T14:22:21.257Z,21.61
2022-08-26T14:24:51.783Z,21.88
2022-08-26T14:27:21.711Z,21.94
2022-08-26T14:29:51.656Z,21.88
2022-08-26T14:32:28.749Z,21.82
2022-08-26T14:34:59.008Z,21.48
2022-08-26T14:37:29.230Z,21.52
2022-08-26T14:39:59.173Z,21.36
2022-08-26T14:42:32.508Z,21.24
2022-08-26T14:45:06.704Z,21.20
2022-08-26T14:47:39.125Z,21.04
2022-08-26T14:50:12.653Z,21.09
2022-08-26T14:52:55.893Z,21.05
2022-08-26T14:55:26.102Z,21.27
2022-08-26T14:57:56.069Z,21.32
2022-08-26T15:00:26.033Z,21.52
2022-08-26T15:02:59.540Z,21.72
2022-08-26T15:05:29.577Z,21.98
2022-08-26T15:08:00.493Z,22.24
2022-08-26T15:10:30.359Z,22.38
2022-08-26T15:13:01.167Z,22.51
2022-08-26T15:15:31.342Z,22.66
2022-08-26T15:18:04.165Z,22.77
2022-08-26T15:20:34.197Z,22.86
2022-08-26T15:23:06.579Z,22.93
2022-08-26T15:25:36.598Z,22.98
2022-08-26T15:28:07.132Z,23.02
2022-08-26T15:30:37.044Z,23.04
2022-08-26T15:33:15.062Z,23.07
2022-08-26T15:35:45.992Z,23.09
2022-08-26T15:38:16.145Z,23.11
2022-08-26T15:40:46.271Z,23.14
2022-08-26T15:43:28.848Z,23.19
2022-08-26T15:46:01.180Z,23.20
2022-08-26T15:48:33.963Z,23.22
2022-08-26T15:51:04.443Z,23.22
2022-08-26T15:53:36.297Z,23.21
2022-08-26T15:56:06.913Z,23.19
2022-08-26T15:58:38.177Z,23.21
2022-08-26T16:01:08.729Z,23.19
2022-08-26T16:03:41.995Z,23.14
2022-08-26T16:06:16.308Z,23.07
2022-08-26T16:08:46.518Z,23.05
2022-08-26T16:11:18.788Z,23.11
2022-08-26T16:13:49.808Z,23.12
2022-08-26T16:16:21.541Z,23.14
2022-08-26T16:18:55.138Z,23.15
2022-08-26T16:21:28.625Z,23.08
2022-08-26T16:23:59.578Z,23.05
2022-08-26T16:26:37.578Z,23.04
2022-08-26T16:29:10.237Z,23.04
2022-08-26T16:31:40.694Z,23.09
2022-08-26T16:34:13.609Z,23.09
2022-08-26T16:36:43.812Z,23.10
2022-08-26T16:39:16.643Z,23.11
2022-08-26T16:41:46.965Z,23.07
2022-08-26T16:44:16.843Z,23.12
2022-08-26T16:46:47.380Z,23.17
2022-08-26T16:49:20.466Z,23.20
2022-08-26T16:51:53.354Z,23.18
2022-08-26T16:54:23.261Z,23.20
2022-08-26T16:56:53.409Z,23.21
2022-08-26T16:59:23.496Z,23.19
2022-08-26T17:01:53.770Z,23.17
2022-08-26T17:04:27.037Z,23.06
2022-08-26T17:06:57.191Z,23.01
2022-08-26T17:09:27.619Z,23.04
2022-08-26T17:11:57.993Z,23.03
2022-08-26T17:14:28.332Z,23.02
2022-08-26T17:16:58.270Z,23.00
2022-08-26T17:19:30.977Z,22.92
2022-08-26T17:22:10.081Z,22.95
2022-08-26T17:24:40.879Z,22.87
2022-08-26T17:27:11.503Z,22.93
2022-08-26T17:29:41.361Z,22.93
2022-08-26T17:32:11.213Z,22.93
2022-08-26T17:34:44.682Z,23.01
2022-08-26T17:37:14.722Z,23.05
2022-08-26T17:39:45.205Z,23.10
2022-08-26T17:42:15.220Z,23.07
2022-08-26T17:44:48.369Z,23.14
2022-08-26T17:47:19.073Z,23.13
2022-08-26T17:49:51.718Z,23.04
2022-08-26T17:52:22.706Z,23.01
2022-08-26T17:54:55.811Z,22.93
2022-08-26T17:57:26.590Z,22.87
2022-08-26T17:59:56.934Z,22.93
2022-08-26T18:02:34.349Z,22.90
2022-08-26T18:05:07.395Z,22.91
2022-08-26T18:07:44.142Z,22.85
2022-08-26T18:10:16.484Z,22.71
2022-08-26T18:12:47.050Z,22.61
2022-08-26T18:15:19.112Z,22.55
2022-08-26T18:17:49.504Z,22.65
2022-08-26T18:20:22.923Z,22.69
2022-08-26T18:22:53.386Z,22.68
2022-08-26T18:25:23.442Z,22.69
2022-08-26T18:27:53.546Z,22.71
2022-08-26T18:30:24.716Z,22.68
2022-08-26T18:32:55.398Z,22.76
2022-08-26T18:35:30.004Z,22.60
2022-08-26T18:38:10.391Z,22.53
2022-08-26T18:40:43.255Z,22.43
2022-08-26T18:43:15.186Z,22.43
2022-08-26T18:45:45.837Z,22.59
2022-08-26T18:48:18.470Z,22.64
2022-08-26T18:50:55.060Z,22.72
2022-08-26T18:53:25.331Z,22.75
2022-08-26T18:55:57.425Z,22.78
2022-08-26T18:58:28.649Z,22.79
2022-08-26T19:00:59.086Z,22.84
2022-08-26T19:03:29.411Z,22.91
2022-08-26T19:06:02.697Z,22.89
2022-08-26T19:08:32.891Z,22.94
2022-08-26T19:11:03.819Z,22.99
2022-08-26T19:13:37.664Z,22.97
2022-08-26T19:16:08.176Z,22.92
2022-08-26T19:18:38.733Z,23.05
2022-08-26T19:21:11.643Z,23.00
2022-08-26T19:23:42.075Z,23.00
2022-08-26T19:26:13.091Z,23.01
2022-08-26T19:28:43.987Z,23.00
2022-08-26T19:31:15.701Z,22.93
2022-08-26T19:33:46.814Z,22.80
2022-08-26T19:36:23.529Z,22.71
2022-08-26T19:38:54.241Z,22.73
2022-08-26T19:41:36.783Z,22.77
2022-08-26T19:44:13.609Z,22.74
2022-08-26T19:46:44.159Z,22.71
2022-08-26T19:49:14.192Z,22.77
2022-08-26T19:51:50.041Z,22.83
2022-08-26T19:54:22.639Z,22.67
2022-08-26T19:56:52.933Z,22.67
2022-08-26T19:59:22.831Z,22.59
2022-08-26T20:02:01.039Z,22.40
2022-08-26T20:04:32.390Z,22.47
2022-08-26T20:07:06.272Z,22.52
2022-08-26T20:09:37.943Z,22.57
2022-08-26T20:12:09.712Z,22.53
2022-08-26T20:14:40.159Z,22.52
2022-08-26T20:17:10.546Z,22.48
2022-08-26T20:19:53.271Z,22.43
2022-08-26T20:22:26.358Z,22.49
2022-08-26T20:24:59.035Z,22.36
2022-08-26T20:27:37.804Z,22.33
2022-08-26T20:30:10.350Z,22.48
2022-08-26T20:32:41.128Z,22.59
2022-08-26T20:35:14.479Z,22.66
2022-08-26T20:37:47.658Z,22.73
2022-08-26T20:40:18.003Z,22.80
2022-08-26T20:42:48.193Z,22.80
2022-08-26T20:45:18.135Z,22.79
2022-08-26T20:47:48.380Z,22.83
2022-08-26T20:50:18.972Z,22.81
2022-08-26T20:52:51.359Z,22.83
2022-08-26T20:55:21.797Z,22.88
2022-08-26T20:57:52.022Z,22.86
2022-08-26T21:00:26.456Z,22.87
2022-08-26T21:02:57.026Z,22.83
2022-08-26T21:05:27.333Z,22.90
2022-08-26T21:07:59.829Z,22.90
2022-08-26T21:10:31.569Z,22.92
2022-08-26T21:13:02.773Z,22.94
2022-08-26T21:15:33.025Z,22.94
2022-08-26T21:18:03.556Z,22.99
2022-08-26T21:20:33.954Z,23.00
2022-08-26T21:23:08.120Z,22.90
2022-08-26T21:25:38.010Z,22.96
2022-08-26T21:28:08.391Z,22.95
2022-08-26T21:30:40.890Z,22.98
2022-08-26T21:33:11.721Z,22.95
2022-08-26T21:35:41.788Z,23.00
2022-08-26T21:38:14.580Z,23.03
2022-08-26T21:40:44.534Z,22.98
2022-08-26T21:43:34.844Z,23.00
2022-08-26T21:46:11.475Z,23.01
2022-08-26T21:48:44.254Z,23.07
2022-08-26T21:51:17.858Z,23.11
2022-08-26T21:53:52.978Z,23.10
2022-08-26T21:56:24.987Z,23.09
2022-08-26T21:58:55.916Z,23.07
2022-08-26T22:01:27.867Z,23.00
2022-08-26T22:04:03.201Z,22.95
2022-08-26T22:06:35.020Z,22.83
2022-08-26T22:09:07.987Z,22.77
2022-08-26T22:11:40.731Z,22.81
2022-08-26T22:14:13.048Z,22.70
2022-08-26T22:16:50.137Z,22.69
2022-08-26T22:19:23.488Z,22.64
2022-08-26T22:21:55.279Z,22.39
2022-08-26T22:24:29.588Z,22.35
2022-08-26T22:27:00.761Z,22.26
2022-08-26T22:29:32.365Z,22.26
2022-08-26T22:32:02.864Z,22.34
2022-08-26T22:34:33.440Z,22.32
2022-08-26T22:37:03.631Z,22.29
2022-08-26T22:39:36.261Z,22.32
2022-08-26T22:42:07.502Z,22.30
2022-08-26T22:44:41.289Z,22.24
2022-08-26T22:47:14.086Z,22.24
2022-08-26T22:49:44.052Z,22.19
2022-08-26T22:52:16.947Z,22.22
2022-08-26T22:54:50.971Z,22.18
2022-08-26T22:57:25.141Z,22.21
2022-08-26T22:59:55.628Z,22.22
2022-08-26T23:02:26.187Z,22.22
2022-08-26T23:04:56.579Z,22.29
2022-08-26T23:07:27.217Z,22.30
2022-08-26T23:10:00.170Z,22.42
2022-08-26T23:12:31.635Z,22.43
2022-08-26T23:15:03.905Z,22.41
2022-08-26T23:17:35.524Z,22.48
2022-08-26T23:20:07.640Z,22.46
2022-08-26T23:22:39.923Z,22.48
2022-08-26T23:25:18.075Z,22.54
2022-08-26T23:28:06.838Z,22.52
2022-08-26T23:31:17.473Z,22.45
2022-08-26T23:34:19.451Z,22.51
2022-08-26T23:36:58.565Z,22.45
2022-08-26T23:39:36.980Z,22.41
2022-08-26T23:42:14.871Z,22.47
2022-08-26T23:44:45.837Z,22.53
2022-08-26T23:47:16.865Z,22.55
2022-08-26T23:49:47.256Z,22.61
2022-08-26T23:52:30.187Z,22.54
2022-08-26T23:55:08.793Z,22.54
2022-08-26T23:57:46.431Z,22.50
